createdAt,value
2018-09-16T00:00:41.068Z,3.30
2018-09-16T00:03:08.687Z,3.67
2018-09-16T00:05:36.344Z,3.40
2018-09-16T00:08:04.040Z,3.43
2018-09-16T00:10:31.879Z,3.30
2018-09-16T00:13:12.331Z,3.30
2018-09-16T00:15:46.507Z,4.00
2018-09-16T00:18:14.304Z,3.57
2018-09-16T00:23:35.223Z,4.37
2018-09-16T00:26:03.163Z,3.10
2018-09-16T00:28:30.898Z,4.60
2018-09-16T00:30:58.891Z,4.10
2018-09-16T00:33:26.578Z,3.87
2018-09-16T00:35:55.463Z,3.57
2018-09-16T00:38:23.759Z,4.47
2018-09-16T00:40:52.810Z,3.70
2018-09-16T00:43:20.616Z,3.67
2018-09-16T00:45:48.285Z,3.70
2018-09-16T00:48:15.914Z,3.80
2018-09-16T00:50:43.696Z,4.73
2018-09-16T00:53:13.756Z,4.27
2018-09-16T00:55:41.492Z,4.03
2018-09-16T00:58:10.851Z,3.50
2018-09-16T01:00:40.915Z,4.27
2018-09-16T01:03:08.760Z,3.83
2018-09-16T01:05:42.139Z,4.30
2018-09-16T01:08:45.299Z,4.10
2018-09-16T01:11:40.200Z,4.40
2018-09-16T01:14:09.374Z,4.43
2018-09-16T01:16:38.185Z,5.27
2018-09-16T01:19:06.544Z,4.27
2018-09-16T01:24:38.343Z,5.00
2018-09-16T01:27:07.751Z,4.10
2018-09-16T01:29:35.861Z,4.03
2018-09-16T01:32:04.320Z,4.77
2018-09-16T01:34:32.519Z,4.23
2018-09-16T01:37:04.340Z,5.10
2018-09-16T01:39:32.089Z,4.23
2018-09-16T01:42:00.260Z,4.47
2018-09-16T01:44:28.229Z,4.33
2018-09-16T01:46:55.934Z,4.80
2018-09-16T01:49:23.596Z,4.30
2018-09-16T01:51:52.746Z,5.37
2018-09-16T01:54:20.411Z,4.30
2018-09-16T02:00:07.127Z,4.40
2018-09-16T02:02:34.788Z,4.70
2018-09-16T02:05:02.627Z,4.50
2018-09-16T02:07:30.469Z,4.80
2018-09-16T02:09:58.636Z,4.90
2018-09-16T02:12:39.224Z,4.87
2018-09-16T02:15:06.882Z,3.80
2018-09-16T02:17:34.535Z,4.33
2018-09-16T02:20:02.416Z,4.40
2018-09-16T02:22:30.100Z,4.50
2018-09-16T02:24:57.761Z,4.67
2018-09-16T02:27:25.400Z,5.00
2018-09-16T02:29:53.080Z,5.03
2018-09-16T02:32:20.787Z,5.07
2018-09-16T02:34:48.492Z,4.83
2018-09-16T02:37:16.427Z,4.50
2018-09-16T02:39:45.916Z,4.00
2018-09-16T02:42:13.480Z,5.30
2018-09-16T02:44:42.093Z,4.90
2018-09-16T02:47:09.860Z,4.50
2018-09-16T02:49:37.579Z,5.00
2018-09-16T02:52:11.004Z,4.73
2018-09-16T02:54:38.623Z,5.47
2018-09-16T02:57:06.424Z,4.00
2018-09-16T02:59:34.111Z,4.30
2018-09-16T03:02:01.719Z,5.40
2018-09-16T03:04:29.519Z,4.90
2018-09-16T03:06:58.159Z,5.43
2018-09-16T03:09:25.831Z,4.43
2018-09-16T03:11:54.209Z,4.10
2018-09-16T03:14:22.051Z,4.40
2018-09-16T03:19:34.943Z,4.90
2018-09-16T03:22:11.887Z,5.23
2018-09-16T03:24:40.825Z,5.67
2018-09-16T03:30:01.306Z,5.33
2018-09-16T03:32:28.864Z,4.70
2018-09-16T03:34:56.521Z,5.10
2018-09-16T03:37:24.424Z,4.33
2018-09-16T03:39:52.507Z,4.87
2018-09-16T03:42:20.163Z,4.87
2018-09-16T03:44:49.017Z,5.10
2018-09-16T03:47:27.927Z,5.10
2018-09-16T03:49:55.701Z,5.47
2018-09-16T03:52:23.307Z,5.10
2018-09-16T03:54:51.659Z,4.97
2018-09-16T03:57:19.541Z,4.77
2018-09-16T04:00:09.822Z,4.97
2018-09-16T04:02:37.444Z,4.70
2018-09-16T04:05:05.199Z,5.53
2018-09-16T04:07:32.980Z,5.67
2018-09-16T04:10:00.571Z,4.80
2018-09-16T04:12:45.236Z,4.50
2018-09-16T04:15:12.926Z,4.80
2018-09-16T04:17:40.684Z,5.20
2018-09-16T04:20:08.563Z,5.30
2018-09-16T04:22:42.214Z,5.30
2018-09-16T04:25:10.448Z,4.97
2018-09-16T04:27:38.392Z,4.83
2018-09-16T04:34:37.478Z,4.90
2018-09-16T04:37:11.719Z,4.20
2018-09-16T04:39:40.739Z,4.80
2018-09-16T04:44:50.378Z,4.63
2018-09-16T04:47:18.006Z,4.43
2018-09-16T04:49:45.951Z,4.73
2018-09-16T04:52:25.920Z,5.20
2018-09-16T04:54:53.558Z,4.60
2018-09-16T04:57:21.395Z,4.40
2018-09-16T04:59:49.092Z,5.00
2018-09-16T05:02:17.388Z,4.63
2018-09-16T05:04:45.328Z,5.20
2018-09-16T05:07:14.242Z,3.97
2018-09-16T05:09:42.023Z,3.80
2018-09-16T05:12:09.684Z,5.13
2018-09-16T05:14:38.604Z,5.37
2018-09-16T05:17:06.251Z,5.23
2018-09-16T05:19:33.974Z,4.17
2018-09-16T05:22:01.626Z,4.60
2018-09-16T05:24:29.450Z,5.33
2018-09-16T05:26:57.071Z,3.77
2018-09-16T05:29:24.730Z,4.30
2018-09-16T05:31:52.378Z,4.77
2018-09-16T05:34:23.208Z,4.73
2018-09-16T05:36:51.253Z,4.93
2018-09-16T05:39:22.328Z,4.40
2018-09-16T05:44:41.604Z,4.40
2018-09-16T05:47:09.277Z,4.63
2018-09-16T05:49:37.100Z,4.40
2018-09-16T05:52:04.851Z,4.70
2018-09-16T05:54:34.324Z,4.40
2018-09-16T05:57:08.105Z,4.30
2018-09-16T05:59:53.068Z,4.80
2018-09-16T06:05:42.570Z,4.60
2018-09-16T06:08:10.456Z,4.90
2018-09-16T06:10:38.480Z,5.70
2018-09-16T06:13:06.271Z,4.53
2018-09-16T06:15:33.926Z,5.50
2018-09-16T06:21:03.299Z,4.50
2018-09-16T06:23:31.001Z,5.10
2018-09-16T06:26:24.595Z,4.80
2018-09-16T06:28:53.088Z,4.30
2018-09-16T06:31:21.379Z,4.63
2018-09-16T06:33:49.006Z,4.60
2018-09-16T06:39:24.382Z,5.17
2018-09-16T06:41:52.382Z,4.87
2018-09-16T06:44:24.121Z,4.87
2018-09-16T06:46:51.832Z,4.60
2018-09-16T06:49:19.400Z,4.37
2018-09-16T06:51:53.954Z,4.63
2018-09-16T06:54:22.596Z,5.00
2018-09-16T06:59:48.678Z,4.80
2018-09-16T07:02:16.236Z,4.87
2018-09-16T07:04:43.835Z,5.17
2018-09-16T07:07:12.407Z,4.60
2018-09-16T07:09:40.064Z,4.53
2018-09-16T07:12:07.776Z,4.93
2018-09-16T07:14:35.651Z,4.80
2018-09-16T07:17:07.405Z,4.47
2018-09-16T07:19:35.124Z,4.33
2018-09-16T07:22:03.266Z,3.80
2018-09-16T07:24:31.145Z,3.77
2018-09-16T07:27:01.087Z,4.03
2018-09-16T07:29:28.749Z,4.10
2018-09-16T07:34:41.272Z,4.30
2018-09-16T07:37:08.881Z,4.03
2018-09-16T07:39:37.398Z,4.13
2018-09-16T07:42:06.396Z,4.50
2018-09-16T07:44:50.801Z,4.20
2018-09-16T07:47:19.474Z,4.30
2018-09-16T07:49:47.332Z,3.90
2018-09-16T07:52:14.959Z,5.03
2018-09-16T07:54:43.449Z,3.77
2018-09-16T07:57:12.172Z,4.43
2018-09-16T07:59:45.242Z,3.23
2018-09-16T08:02:24.149Z,3.73
2018-09-16T08:04:51.876Z,3.77
2018-09-16T08:07:20.679Z,3.87
2018-09-16T08:09:48.322Z,3.60
2018-09-16T08:12:16.907Z,3.90
2018-09-16T08:14:44.558Z,4.10
2018-09-16T08:17:12.327Z,4.40
2018-09-16T08:19:40.126Z,4.30
2018-09-16T08:22:07.870Z,3.40
2018-09-16T08:24:35.532Z,3.43
2018-09-16T08:27:03.588Z,4.50
2018-09-16T08:29:31.720Z,3.87
2018-09-16T08:31:59.296Z,3.80
2018-09-16T08:34:26.880Z,3.90
2018-09-16T08:36:54.594Z,3.77
2018-09-16T08:39:22.221Z,2.77
2018-09-16T08:41:50.840Z,3.50
2018-09-16T08:44:18.500Z,2.93
2018-09-16T08:46:46.330Z,4.13
2018-09-16T08:49:13.957Z,3.20
2018-09-16T08:51:41.653Z,2.90
2018-09-16T08:54:09.386Z,3.20
2018-09-16T08:56:37.179Z,2.70
2018-09-16T08:59:04.908Z,3.07
2018-09-16T09:01:32.518Z,2.87
2018-09-16T09:04:00.119Z,3.50
2018-09-16T09:06:27.820Z,2.80
2018-09-16T09:09:05.463Z,2.83
2018-09-16T09:11:39.874Z,2.63
2018-09-16T09:14:07.588Z,2.90
2018-09-16T09:16:35.362Z,2.53
2018-09-16T09:19:03.019Z,2.30
2018-09-16T09:21:32.407Z,2.70
2018-09-16T09:24:00.695Z,2.30
2018-09-16T09:26:28.386Z,2.37
2018-09-16T09:28:56.112Z,2.20
2018-09-16T09:31:23.956Z,2.27
2018-09-16T09:33:51.558Z,2.27
2018-09-16T09:36:19.144Z,2.53
2018-09-16T09:38:46.809Z,2.20
2018-09-16T09:41:14.463Z,2.07
2018-09-16T09:43:43.032Z,2.00
2018-09-16T09:46:10.729Z,2.03
2018-09-16T09:48:38.356Z,1.90
2018-09-16T09:51:06.062Z,3.53
2018-09-16T09:53:34.149Z,1.80
2018-09-16T09:56:03.923Z,1.90
2018-09-16T09:58:31.798Z,2.07
2018-09-16T10:00:59.494Z,2.27
2018-09-16T10:03:28.290Z,2.20
2018-09-16T10:05:56.176Z,1.80
2018-09-16T10:08:30.423Z,1.97
2018-09-16T10:10:59.807Z,2.13
2018-09-16T10:13:27.628Z,1.70
2018-09-16T10:15:56.152Z,1.90
2018-09-16T10:18:23.815Z,1.70
2018-09-16T10:20:53.394Z,1.70
2018-09-16T10:23:22.885Z,2.20
2018-09-16T10:25:50.929Z,1.37
2018-09-16T10:28:21.052Z,1.80
2018-09-16T10:30:52.079Z,1.50
2018-09-16T10:33:19.851Z,1.67
2018-09-16T10:38:26.985Z,1.40
2018-09-16T10:41:00.313Z,1.47
2018-09-16T10:43:38.470Z,1.33
2018-09-16T10:46:06.330Z,1.70
2018-09-16T10:48:34.399Z,1.70
2018-09-16T10:51:04.939Z,2.83
2018-09-16T10:53:32.633Z,2.00
2018-09-16T10:56:01.005Z,2.20
2018-09-16T10:58:28.698Z,2.10
2018-09-16T11:00:56.401Z,1.87
2018-09-16T11:03:24.006Z,3.30
2018-09-16T11:05:53.857Z,1.80
2018-09-16T11:08:22.465Z,1.60
2018-09-16T11:10:50.656Z,1.90
2018-09-16T11:13:18.336Z,1.53
2018-09-16T11:15:46.458Z,1.60
2018-09-16T11:18:15.912Z,1.90
2018-09-16T11:20:44.416Z,2.13
2018-09-16T11:23:12.167Z,1.73
2018-09-16T11:25:46.286Z,2.10
2018-09-16T11:28:14.596Z,2.10
2018-09-16T11:30:42.729Z,1.90
2018-09-16T11:33:10.359Z,1.93
2018-09-16T11:35:40.401Z,1.80
2018-09-16T11:38:09.051Z,1.80
2018-09-16T11:40:38.859Z,2.10
2018-09-16T11:43:06.726Z,1.90
2018-09-16T11:45:34.428Z,1.77
2018-09-16T11:48:03.167Z,2.13
2018-09-16T11:50:31.932Z,2.00
2018-09-16T11:53:00.008Z,2.07
2018-09-16T11:55:27.891Z,2.00
2018-09-16T11:57:56.288Z,1.90
2018-09-16T12:00:28.045Z,1.80
2018-09-16T12:02:55.790Z,2.00
2018-09-16T12:05:23.546Z,1.97
2018-09-16T12:07:51.282Z,1.60
2018-09-16T12:10:22.163Z,1.60
2018-09-16T12:12:49.928Z,1.97
2018-09-16T12:15:17.670Z,1.80
2018-09-16T12:17:46.341Z,1.93
2018-09-16T12:20:14.238Z,2.07
2018-09-16T12:22:41.944Z,1.60
2018-09-16T12:25:09.622Z,2.20
2018-09-16T12:27:44.718Z,1.90
2018-09-16T12:30:12.511Z,1.80
2018-09-16T12:32:40.135Z,2.23
2018-09-16T12:35:09.104Z,2.40
2018-09-16T12:37:38.527Z,1.77
2018-09-16T12:40:06.845Z,1.70
2018-09-16T12:42:47.460Z,1.70
2018-09-16T12:45:16.149Z,1.57
2018-09-16T12:50:43.881Z,1.97
2018-09-16T12:53:11.904Z,1.70
2018-09-16T12:55:39.770Z,2.67
2018-09-16T12:58:08.422Z,1.60
2018-09-16T13:00:42.246Z,1.60
2018-09-16T13:03:12.378Z,2.30
2018-09-16T13:06:20.697Z,1.60
2018-09-16T13:08:48.596Z,2.07
2018-09-16T13:11:21.330Z,2.10
2018-09-16T13:13:55.294Z,2.03
2018-09-16T13:16:23.648Z,1.70
2018-09-16T13:18:51.468Z,1.67
2018-09-16T13:21:22.083Z,1.80
2018-09-16T13:23:54.001Z,1.87
2018-09-16T13:26:22.222Z,1.87
2018-09-16T13:28:50.791Z,1.80
2018-09-16T13:31:18.515Z,2.07
2018-09-16T13:33:46.271Z,2.37
2018-09-16T13:36:15.271Z,1.90
2018-09-16T13:38:43.492Z,2.43
2018-09-16T13:41:11.138Z,2.17
2018-09-16T13:43:43.037Z,2.00
2018-09-16T13:46:10.826Z,2.20
2018-09-16T13:48:38.608Z,1.97
2018-09-16T13:51:06.340Z,2.20
2018-09-16T13:53:34.774Z,2.40
2018-09-16T13:56:08.707Z,2.10
2018-09-16T13:58:37.081Z,1.97
2018-09-16T14:01:10.391Z,2.03
2018-09-16T14:03:38.307Z,2.17
2018-09-16T14:06:06.058Z,2.40
2018-09-16T14:08:33.783Z,1.87
2018-09-16T14:11:01.680Z,2.13
2018-09-16T14:13:30.896Z,2.20
2018-09-16T14:15:58.513Z,2.20
2018-09-16T14:18:26.655Z,1.90
2018-09-16T14:23:35.392Z,1.90
2018-09-16T14:26:02.991Z,2.23
2018-09-16T14:28:30.689Z,2.40
2018-09-16T14:30:58.765Z,1.87
2018-09-16T14:33:42.368Z,2.37
2018-09-16T14:36:10.071Z,2.00
2018-09-16T14:38:38.687Z,2.30
2018-09-16T14:41:06.680Z,2.00
2018-09-16T14:43:34.635Z,2.07
2018-09-16T14:46:04.863Z,2.43
2018-09-16T14:48:32.637Z,2.10
2018-09-16T14:51:01.003Z,2.73
2018-09-16T14:53:28.690Z,2.10
2018-09-16T14:55:56.351Z,2.00
2018-09-16T14:58:26.075Z,1.97
2018-09-16T15:00:54.787Z,3.10
2018-09-16T15:03:22.503Z,2.40
2018-09-16T15:05:50.606Z,2.10
2018-09-16T15:08:32.712Z,2.23
2018-09-16T15:11:00.516Z,2.63
2018-09-16T15:16:31.657Z,2.60
2018-09-16T15:18:59.288Z,2.73
2018-09-16T15:21:27.009Z,2.63
2018-09-16T15:23:55.613Z,3.70
2018-09-16T15:26:24.214Z,2.07
2018-09-16T15:28:52.300Z,3.30
2018-09-16T15:31:20.105Z,2.53
2018-09-16T15:33:48.095Z,2.43
2018-09-16T15:36:15.931Z,2.27
2018-09-16T15:39:03.526Z,1.80
2018-09-16T15:41:31.142Z,2.60
2018-09-16T15:43:59.726Z,2.23
2018-09-16T15:46:28.674Z,4.37
2018-09-16T15:48:57.306Z,2.37
2018-09-16T15:51:24.863Z,3.20
2018-09-16T15:53:53.469Z,2.70
2018-09-16T15:56:34.792Z,2.83
2018-09-16T15:59:02.600Z,1.80
2018-09-16T16:01:30.347Z,2.80
2018-09-16T16:03:58.103Z,2.53
2018-09-16T16:06:26.721Z,2.73
2018-09-16T16:08:54.391Z,2.20
2018-09-16T16:11:22.022Z,3.93
2018-09-16T16:13:50.792Z,5.33
2018-09-16T16:16:18.520Z,3.23
2018-09-16T16:18:46.132Z,2.83
2018-09-16T16:21:13.827Z,3.27
2018-09-16T16:23:41.462Z,3.27
2018-09-16T16:26:11.431Z,3.60
2018-09-16T16:28:39.313Z,3.50
2018-09-16T16:31:23.207Z,2.43
2018-09-16T16:33:52.126Z,2.47
2018-09-16T16:36:33.959Z,3.17
2018-09-16T16:39:10.326Z,3.70
2018-09-16T16:41:39.022Z,4.83
2018-09-16T16:44:06.831Z,2.60
2018-09-16T16:49:29.824Z,2.50
2018-09-16T16:51:57.554Z,2.50
2018-09-16T16:54:25.243Z,6.17
2018-09-16T16:56:55.603Z,4.13
2018-09-16T16:59:23.374Z,10.33
2018-09-16T17:02:08.655Z,5.07
2018-09-16T17:04:38.418Z,6.10
2018-09-16T17:07:06.440Z,6.67
2018-09-16T17:09:35.336Z,15.80
2018-09-16T17:12:02.983Z,12.80
2018-09-16T17:14:30.594Z,10.57
2018-09-16T17:20:01.544Z,4.33
2018-09-16T17:22:29.347Z,10.77
2018-09-16T17:24:57.204Z,7.73
2018-09-16T17:27:24.783Z,10.10
2018-09-16T17:29:52.699Z,11.30
2018-09-16T17:32:20.411Z,4.50
2018-09-16T17:40:54.584Z,3.30
2018-09-16T17:43:22.434Z,3.20
2018-09-16T17:45:50.152Z,4.00
2018-09-16T17:54:15.121Z,7.40
2018-09-16T17:59:40.049Z,6.17
2018-09-16T18:02:54.556Z,17.10
2018-09-16T18:05:22.165Z,4.83
2018-09-16T18:10:42.685Z,4.00
2018-09-16T18:13:10.263Z,3.50
2018-09-16T18:15:37.953Z,3.63
2018-09-16T18:18:11.397Z,3.07
2018-09-16T18:20:39.014Z,3.27
2018-09-16T18:34:26.197Z,4.67
2018-09-16T18:36:53.934Z,3.70
2018-09-16T18:39:22.374Z,3.90
2018-09-16T18:41:50.070Z,2.97
2018-09-16T18:47:20.717Z,4.57
2018-09-16T18:49:49.215Z,3.50
2018-09-16T18:52:17.273Z,4.00
2018-09-16T18:54:45.043Z,3.97
2018-09-16T18:57:13.995Z,3.20
2018-09-16T18:59:42.176Z,3.90
2018-09-16T19:05:04.857Z,3.00
2018-09-16T19:07:32.585Z,3.00
2018-09-16T19:10:00.399Z,4.30
2018-09-16T19:15:43.903Z,3.60
2018-09-16T19:18:11.799Z,4.20
2018-09-16T19:23:41.271Z,3.47
2018-09-16T19:26:09.158Z,3.77
2018-09-16T19:29:24.622Z,3.40
2018-09-16T19:31:52.662Z,3.80
2018-09-16T19:34:20.699Z,3.40
2018-09-16T19:39:43.021Z,3.60
2018-09-16T19:42:10.941Z,3.97
2018-09-16T19:44:39.656Z,3.77
2018-09-16T19:47:07.621Z,4.30
2018-09-16T19:49:35.494Z,3.70
2018-09-16T19:52:10.549Z,3.50
2018-09-16T19:54:39.827Z,3.50
2018-09-16T19:57:07.827Z,3.90
2018-09-16T20:02:38.511Z,3.67
2018-09-16T20:08:15.975Z,3.90
2018-09-16T20:21:29.076Z,4.70
2018-09-16T20:24:06.379Z,4.10
2018-09-16T20:26:40.076Z,4.50
2018-09-16T20:29:08.002Z,5.87
2018-09-16T20:31:35.735Z,4.20
2018-09-16T20:34:26.853Z,4.23
2018-09-16T20:36:54.575Z,5.03
2018-09-16T20:39:41.017Z,4.63
2018-09-16T20:42:09.083Z,4.87
2018-09-16T20:44:36.844Z,4.70
2018-09-16T20:47:05.523Z,5.50
2018-09-16T20:49:33.491Z,4.53
2018-09-16T20:52:06.028Z,4.30
2018-09-16T20:54:35.120Z,4.60
2018-09-16T20:57:03.138Z,4.60
2018-09-16T20:59:31.166Z,4.80
2018-09-16T21:01:59.045Z,4.37
2018-09-16T21:07:36.304Z,4.20
2018-09-16T21:13:08.551Z,4.30
2018-09-16T21:15:36.464Z,4.33
2018-09-16T21:19:39.538Z,4.90
2018-09-16T21:22:07.859Z,4.63
2018-09-16T21:24:36.150Z,4.70
2018-09-16T21:27:23.806Z,4.57
2018-09-16T21:30:07.749Z,4.40
2018-09-16T21:32:35.659Z,4.30
2018-09-16T21:35:04.728Z,4.50
2018-09-16T21:37:33.167Z,4.10
2018-09-16T21:40:09.425Z,4.07
2018-09-16T21:42:37.604Z,4.47
2018-09-16T21:45:06.355Z,4.50
2018-09-16T21:47:46.696Z,5.60
2018-09-16T21:50:14.741Z,4.70
2018-09-16T21:52:42.475Z,5.10
2018-09-16T21:55:11.019Z,4.43
2018-09-16T21:57:39.414Z,5.50
2018-09-16T22:00:07.941Z,4.57
2018-09-16T22:02:55.096Z,5.53
2018-09-16T22:05:22.754Z,5.13
2018-09-16T22:07:50.463Z,4.50
2018-09-16T22:10:18.309Z,5.20
2018-09-16T22:12:46.245Z,4.80
2018-09-16T22:15:37.312Z,4.60
2018-09-16T22:18:25.835Z,5.33
2018-09-16T22:21:10.646Z,4.83
2018-09-16T22:23:48.735Z,4.60
2018-09-16T22:26:16.685Z,4.87
2018-09-16T22:28:44.617Z,5.27
2018-09-16T22:31:12.759Z,4.73
2018-09-16T22:33:54.543Z,4.80
2018-09-16T22:36:23.123Z,5.00
2018-09-16T22:38:51.441Z,5.60
2018-09-16T22:44:13.208Z,5.50
2018-09-16T22:49:41.704Z,4.87
2018-09-16T22:52:09.473Z,4.83
2018-09-16T22:54:37.154Z,4.73
2018-09-16T22:57:04.896Z,4.80
2018-09-16T22:59:38.336Z,4.83
2018-09-16T23:02:05.987Z,5.27
2018-09-16T23:04:33.612Z,4.97
2018-09-16T23:07:01.372Z,3.87
2018-09-16T23:09:29.945Z,4.60
2018-09-16T23:12:08.086Z,5.10
2018-09-16T23:14:40.435Z,4.77
2018-09-16T23:17:08.061Z,4.77
2018-09-16T23:19:36.322Z,4.97
2018-09-16T23:22:11.804Z,5.37
2018-09-16T23:25:07.661Z,4.90
2018-09-16T23:27:42.256Z,4.40
2018-09-16T23:33:01.983Z,5.23
2018-09-16T23:38:32.568Z,4.30
2018-09-16T23:41:00.157Z,4.83
2018-09-16T23:43:45.897Z,5.03
2018-09-16T23:46:13.839Z,4.70
2018-09-16T23:48:41.502Z,5.10
2018-09-16T23:51:46.678Z,5.03
2018-09-16T23:57:04.877Z,5.10
